sensor_id;sensor_type;location;lat;lon;timestamp;pressure;altitude;pressure_sealevel;temperature;humidity
7297;BME280;40758;54.038;11.684;2022-12-17T00:00:26;101895.16;;;-11.77;100.00
7297;BME280;40758;54.038;11.684;2022-12-17T00:03:12;101897.59;;;-11.83;100.00
7297;BME280;40758;54.038;11.684;2022-12-17T00:06:00;101904.47;;;-11.85;100.00
7297;BME280;40758;54.038;11.684;2022-12-17T00:08:46;101905.06;;;-11.96;100.00
7297;BME280;40758;54.038;11.684;2022-12-17T00:11:32;101908.41;;;-12.00;100.00
7297;BME280;40758;54.038;11.684;2022-12-17T00:14:22;101913.38;;;-12.07;100.00
7297;BME280;40758;54.038;11.684;2022-12-17T00:17:11;101916.63;;;-12.14;100.00
7297;BME280;40758;54.038;11.684;2022-12-17T00:19:58;101916.63;;;-12.16;100.00
7297;BME280;40758;54.038;11.684;2022-12-17T00:22:46;101918.19;;;-12.21;100.00
7297;BME280;40758;54.038;11.684;2022-12-17T00:25:32;101919.88;;;-12.21;100.00
7297;BME280;40758;54.038;11.684;2022-12-17T00:28:18;101926.13;;;-12.15;100.00
7297;BME280;40758;54.038;11.684;2022-12-17T00:31:05;101919.94;;;-12.20;100.00
7297;BME280;40758;54.038;11.684;2022-12-17T00:33:52;101917.13;;;-12.27;100.00
7297;BME280;40758;54.038;11.684;2022-12-17T00:36:39;101926.44;;;-12.34;100.00
7297;BME280;40758;54.038;11.684;2022-12-17T00:39:27;101928.81;;;-12.42;100.00
7297;BME280;40758;54.038;11.684;2022-12-17T00:42:13;101922.50;;;-12.51;100.00
7297;BME280;40758;54.038;11.684;2022-12-17T00:44:55;101929.84;;;-12.65;100.00
7297;BME280;40758;54.038;11.684;2022-12-17T00:47:41;101924.31;;;-12.77;100.00
7297;BME280;40758;54.038;11.684;2022-12-17T00:50:28;101928.34;;;-12.87;100.00
7297;BME280;40758;54.038;11.684;2022-12-17T00:53:14;101925.63;;;-12.91;100.00
7297;BME280;40758;54.038;11.684;2022-12-17T00:56:03;101928.91;;;-12.97;100.00
7297;BME280;40758;54.038;11.684;2022-12-17T00:58:49;101928.06;;;-12.96;100.00
7297;BME280;40758;54.038;11.684;2022-12-17T01:01:39;101932.56;;;-12.90;100.00
7297;BME280;40758;54.038;11.684;2022-12-17T01:04:25;101936.94;;;-12.88;100.00
7297;BME280;40758;54.038;11.684;2022-12-17T01:07:12;101945.44;;;-12.92;100.00
7297;BME280;40758;54.038;11.684;2022-12-17T01:09:58;101939.13;;;-13.00;100.00
7297;BME280;40758;54.038;11.684;2022-12-17T01:12:46;101945.94;;;-13.03;100.00
7297;BME280;40758;54.038;11.684;2022-12-17T01:15:33;101948.34;;;-13.08;100.00
7297;BME280;40758;54.038;11.684;2022-12-17T01:18:22;101956.88;;;-13.12;100.00
7297;BME280;40758;54.038;11.684;2022-12-17T01:21:11;101957.63;;;-13.16;100.00
7297;BME280;40758;54.038;11.684;2022-12-17T01:23:58;101969.56;;;-13.20;100.00
7297;BME280;40758;54.038;11.684;2022-12-17T01:26:45;101962.88;;;-13.15;100.00
7297;BME280;40758;54.038;11.684;2022-12-17T01:29:33;101975.09;;;-13.07;100.00
7297;BME280;40758;54.038;11.684;2022-12-17T01:32:22;101969.97;;;-13.06;100.00
7297;BME280;40758;54.038;11.684;2022-12-17T01:35:11;101981.00;;;-13.13;100.00
7297;BME280;40758;54.038;11.684;2022-12-17T01:37:58;101985.88;;;-13.22;100.00
7297;BME280;40758;54.038;11.684;2022-12-17T01:40:50;101987.25;;;-13.32;100.00
7297;BME280;40758;54.038;11.684;2022-12-17T01:43:38;101978.47;;;-13.37;100.00
7297;BME280;40758;54.038;11.684;2022-12-17T01:46:31;101976.69;;;-13.39;100.00
7297;BME280;40758;54.038;11.684;2022-12-17T01:49:20;101985.06;;;-13.46;100.00
7297;BME280;40758;54.038;11.684;2022-12-17T01:52:12;101984.69;;;-13.57;100.00
7297;BME280;40758;54.038;11.684;2022-12-17T01:55:02;101986.16;;;-13.64;100.00
7297;BME280;40758;54.038;11.684;2022-12-17T01:57:52;101986.84;;;-13.69;100.00
7297;BME280;40758;54.038;11.684;2022-12-17T02:00:41;101985.88;;;-13.73;100.00
7297;BME280;40758;54.038;11.684;2022-12-17T02:03:29;101993.72;;;-13.70;100.00
7297;BME280;40758;54.038;11.684;2022-12-17T02:06:25;101992.69;;;-13.75;100.00
7297;BME280;40758;54.038;11.684;2022-12-17T02:09:22;101999.59;;;-13.74;100.00
7297;BME280;40758;54.038;11.684;2022-12-17T02:12:20;101999.41;;;-13.80;100.00
7297;BME280;40758;54.038;11.684;2022-12-17T02:15:17;102002.78;;;-13.81;100.00
7297;BME280;40758;54.038;11.684;2022-12-17T02:18:16;102007.50;;;-13.71;100.00
7297;BME280;40758;54.038;11.684;2022-12-17T02:21:06;102010.97;;;-13.69;100.00
7297;BME280;40758;54.038;11.684;2022-12-17T02:24:00;102015.25;;;-13.71;100.00
7297;BME280;40758;54.038;11.684;2022-12-17T02:26:57;102010.06;;;-13.71;100.00
7297;BME280;40758;54.038;11.684;2022-12-17T02:29:50;102005.72;;;-13.72;100.00
7297;BME280;40758;54.038;11.684;2022-12-17T02:32:45;102012.53;;;-13.74;100.00
7297;BME280;40758;54.038;11.684;2022-12-17T02:35:41;102020.06;;;-13.80;100.00
7297;BME280;40758;54.038;11.684;2022-12-17T02:38:31;102015.41;;;-13.90;100.00
7297;BME280;40758;54.038;11.684;2022-12-17T02:41:24;102020.66;;;-13.87;100.00
7297;BME280;40758;54.038;11.684;2022-12-17T02:44:16;102020.72;;;-13.85;100.00
7297;BME280;40758;54.038;11.684;2022-12-17T02:47:07;102014.81;;;-13.83;100.00
7297;BME280;40758;54.038;11.684;2022-12-17T02:49:58;102001.38;;;-13.97;100.00
7297;BME280;40758;54.038;11.684;2022-12-17T02:52:49;102002.88;;;-14.03;100.00
7297;BME280;40758;54.038;11.684;2022-12-17T02:55:41;102008.84;;;-14.04;100.00
7297;BME280;40758;54.038;11.684;2022-12-17T02:58:27;102010.50;;;-14.06;100.00
7297;BME280;40758;54.038;11.684;2022-12-17T03:01:15;102008.09;;;-14.02;100.00
7297;BME280;40758;54.038;11.684;2022-12-17T03:04:01;102005.88;;;-13.91;100.00
7297;BME280;40758;54.038;11.684;2022-12-17T03:06:48;102015.47;;;-13.88;100.00
7297;BME280;40758;54.038;11.684;2022-12-17T03:09:37;102009.63;;;-13.83;100.00
7297;BME280;40758;54.038;11.684;2022-12-17T03:12:28;102007.06;;;-13.83;100.00
7297;BME280;40758;54.038;11.684;2022-12-17T03:15:14;102009.72;;;-13.80;100.00
7297;BME280;40758;54.038;11.684;2022-12-17T03:18:02;102016.00;;;-13.73;100.00
7297;BME280;40758;54.038;11.684;2022-12-17T03:20:52;102021.31;;;-13.69;100.00
7297;BME280;40758;54.038;11.684;2022-12-17T03:23:39;102022.25;;;-13.67;100.00
7297;BME280;40758;54.038;11.684;2022-12-17T03:26:25;102008.59;;;-13.63;100.00
7297;BME280;40758;54.038;11.684;2022-12-17T03:29:11;102008.81;;;-13.57;100.00
7297;BME280;40758;54.038;11.684;2022-12-17T03:31:57;102007.91;;;-13.59;100.00
7297;BME280;40758;54.038;11.684;2022-12-17T03:34:45;102007.31;;;-13.51;100.00
7297;BME280;40758;54.038;11.684;2022-12-17T03:37:31;102009.69;;;-13.56;100.00
7297;BME280;40758;54.038;11.684;2022-12-17T03:40:18;102015.88;;;-13.52;100.00
7297;BME280;40758;54.038;11.684;2022-12-17T03:43:06;102012.34;;;-13.55;100.00
7297;BME280;40758;54.038;11.684;2022-12-17T03:45:53;102006.22;;;-13.58;100.00
7297;BME280;40758;54.038;11.684;2022-12-17T03:48:40;102003.41;;;-13.64;100.00
7297;BME280;40758;54.038;11.684;2022-12-17T03:51:27;102001.91;;;-13.81;100.00
7297;BME280;40758;54.038;11.684;2022-12-17T03:54:14;102004.84;;;-13.96;100.00
7297;BME280;40758;54.038;11.684;2022-12-17T03:57:00;102010.63;;;-14.03;100.00
7297;BME280;40758;54.038;11.684;2022-12-17T03:59:46;102011.38;;;-14.06;100.00
7297;BME280;40758;54.038;11.684;2022-12-17T04:02:32;102019.09;;;-14.07;100.00
7297;BME280;40758;54.038;11.684;2022-12-17T04:05:19;102012.03;;;-14.11;100.00
7297;BME280;40758;54.038;11.684;2022-12-17T04:08:07;102010.03;;;-14.18;100.00
7297;BME280;40758;54.038;11.684;2022-12-17T04:10:53;102015.19;;;-14.18;100.00
7297;BME280;40758;54.038;11.684;2022-12-17T04:13:39;102015.34;;;-14.15;100.00
7297;BME280;40758;54.038;11.684;2022-12-17T04:16:25;102017.09;;;-14.14;100.00
7297;BME280;40758;54.038;11.684;2022-12-17T04:19:12;102018.88;;;-14.13;100.00
7297;BME280;40758;54.038;11.684;2022-12-17T04:21:58;102019.47;;;-14.19;100.00
7297;BME280;40758;54.038;11.684;2022-12-17T04:24:46;102035.84;;;-14.18;100.00
7297;BME280;40758;54.038;11.684;2022-12-17T04:27:32;102029.78;;;-14.20;100.00
7297;BME280;40758;54.038;11.684;2022-12-17T04:30:18;102030.38;;;-14.27;100.00
7297;BME280;40758;54.038;11.684;2022-12-17T04:33:07;102035.41;;;-14.30;100.00
7297;BME280;40758;54.038;11.684;2022-12-17T04:35:54;102028.19;;;-14.41;100.00
7297;BME280;40758;54.038;11.684;2022-12-17T04:38:41;102031.47;;;-14.45;100.00
7297;BME280;40758;54.038;11.684;2022-12-17T04:41:29;102034.28;;;-14.39;100.00
7297;BME280;40758;54.038;11.684;2022-12-17T04:44:15;102035.41;;;-14.30;100.00
7297;BME280;40758;54.038;11.684;2022-12-17T04:47:02;102040.69;;;-14.27;100.00
7297;BME280;40758;54.038;11.684;2022-12-17T04:49:54;102047.56;;;-14.28;100.00
7297;BME280;40758;54.038;11.684;2022-12-17T04:52:40;102042.22;;;-14.32;100.00
7297;BME280;40758;54.038;11.684;2022-12-17T04:55:28;102042.03;;;-14.39;100.00
7297;BME280;40758;54.038;11.684;2022-12-17T04:58:17;102043.44;;;-14.47;100.00
7297;BME280;40758;54.038;11.684;2022-12-17T05:01:03;102043.66;;;-14.41;100.00
7297;BME280;40758;54.038;11.684;2022-12-17T05:03:53;102049.31;;;-14.27;100.00
7297;BME280;40758;54.038;11.684;2022-12-17T05:06:39;102050.38;;;-14.22;100.00
7297;BME280;40758;54.038;11.684;2022-12-17T05:09:25;102037.84;;;-14.11;100.00
7297;BME280;40758;54.038;11.684;2022-12-17T05:12:14;102053.94;;;-14.18;100.00
7297;BME280;40758;54.038;11.684;2022-12-17T05:15:02;102049.09;;;-14.33;100.00
7297;BME280;40758;54.038;11.684;2022-12-17T05:17:48;102044.69;;;-14.36;100.00
7297;BME280;40758;54.038;11.684;2022-12-17T05:20:41;102050.59;;;-14.40;100.00
7297;BME280;40758;54.038;11.684;2022-12-17T05:23:33;102052.13;;;-14.45;100.00
7297;BME280;40758;54.038;11.684;2022-12-17T05:26:23;102061.44;;;-14.48;100.00
7297;BME280;40758;54.038;11.684;2022-12-17T05:29:25;102055.38;;;-14.49;100.00
7297;BME280;40758;54.038;11.684;2022-12-17T05:32:15;102059.78;;;-14.46;100.00
7297;BME280;40758;54.038;11.684;2022-12-17T05:35:01;102056.81;;;-14.57;100.00
7297;BME280;40758;54.038;11.684;2022-12-17T05:37:48;102068.81;;;-14.57;100.00
7297;BME280;40758;54.038;11.684;2022-12-17T05:40:43;102061.81;;;-14.60;100.00
7297;BME280;40758;54.038;11.684;2022-12-17T05:43:29;102071.91;;;-14.66;100.00
7297;BME280;40758;54.038;11.684;2022-12-17T05:46:18;102082.97;;;-14.68;100.00
7297;BME280;40758;54.038;11.684;2022-12-17T05:49:11;102081.97;;;-14.72;100.00
7297;BME280;40758;54.038;11.684;2022-12-17T05:51:58;102080.22;;;-14.73;100.00
7297;BME280;40758;54.038;11.684;2022-12-17T05:54:44;102078.84;;;-14.65;100.00
7297;BME280;40758;54.038;11.684;2022-12-17T05:57:32;102083.28;;;-14.61;100.00
7297;BME280;40758;54.038;11.684;2022-12-17T06:00:23;102083.81;;;-14.69;100.00
7297;BME280;40758;54.038;11.684;2022-12-17T06:03:12;102082.16;;;-14.67;100.00
7297;BME280;40758;54.038;11.684;2022-12-17T06:06:00;102084.88;;;-14.64;100.00
7297;BME280;40758;54.038;11.684;2022-12-17T06:08:49;102092.78;;;-14.60;100.00
7297;BME280;40758;54.038;11.684;2022-12-17T06:11:42;102090.09;;;-14.63;100.00
7297;BME280;40758;54.038;11.684;2022-12-17T06:14:29;102090.22;;;-14.60;100.00
7297;BME280;40758;54.038;11.684;2022-12-17T06:17:15;102088.66;;;-14.56;100.00
7297;BME280;40758;54.038;11.684;2022-12-17T06:20:02;102091.84;;;-14.62;100.00
7297;BME280;40758;54.038;11.684;2022-12-17T06:23:00;102086.63;;;-14.63;100.00
7297;BME280;40758;54.038;11.684;2022-12-17T06:25:47;102094.94;;;-14.70;100.00
7297;BME280;40758;54.038;11.684;2022-12-17T06:28:48;102103.34;;;-14.74;100.00
7297;BME280;40758;54.038;11.684;2022-12-17T06:31:37;102102.53;;;-14.73;100.00
7297;BME280;40758;54.038;11.684;2022-12-17T06:34:24;102114.31;;;-14.80;100.00
7297;BME280;40758;54.038;11.684;2022-12-17T06:37:13;102111.69;;;-14.82;100.00
7297;BME280;40758;54.038;11.684;2022-12-17T06:40:01;102122.91;;;-14.81;100.00
7297;BME280;40758;54.038;11.684;2022-12-17T06:42:53;102125.59;;;-14.78;100.00
7297;BME280;40758;54.038;11.684;2022-12-17T06:45:41;102128.78;;;-14.84;100.00
7297;BME280;40758;54.038;11.684;2022-12-17T06:48:27;102130.41;;;-14.86;100.00
7297;BME280;40758;54.038;11.684;2022-12-17T06:51:13;102137.53;;;-14.80;100.00
7297;BME280;40758;54.038;11.684;2022-12-17T06:54:02;102130.66;;;-14.80;100.00
7297;BME280;40758;54.038;11.684;2022-12-17T06:56:50;102131.81;;;-14.73;100.00
7297;BME280;40758;54.038;11.684;2022-12-17T06:59:42;102135.34;;;-14.71;100.00
7297;BME280;40758;54.038;11.684;2022-12-17T07:02:29;102148.31;;;-14.69;100.00
7297;BME280;40758;54.038;11.684;2022-12-17T07:05:16;102150.75;;;-14.72;100.00
7297;BME280;40758;54.038;11.684;2022-12-17T07:08:03;102154.22;;;-14.72;100.00
7297;BME280;40758;54.038;11.684;2022-12-17T07:10:49;102165.41;;;-14.71;100.00
7297;BME280;40758;54.038;11.684;2022-12-17T07:13:42;102163.97;;;-14.65;100.00
7297;BME280;40758;54.038;11.684;2022-12-17T07:16:29;102170.44;;;-14.54;100.00
7297;BME280;40758;54.038;11.684;2022-12-17T07:19:16;102168.25;;;-14.45;100.00
7297;BME280;40758;54.038;11.684;2022-12-17T07:22:14;102174.53;;;-14.37;100.00
7297;BME280;40758;54.038;11.684;2022-12-17T07:25:01;102177.34;;;-14.32;100.00
7297;BME280;40758;54.038;11.684;2022-12-17T07:27:52;102176.56;;;-14.29;100.00
7297;BME280;40758;54.038;11.684;2022-12-17T07:30:41;102181.88;;;-14.26;100.00
7297;BME280;40758;54.038;11.684;2022-12-17T07:33:28;102175.03;;;-14.24;100.00
7297;BME280;40758;54.038;11.684;2022-12-17T07:36:15;102185.38;;;-14.24;100.00
7297;BME280;40758;54.038;11.684;2022-12-17T07:39:02;102183.81;;;-14.21;100.00
7297;BME280;40758;54.038;11.684;2022-12-17T07:41:50;102189.97;;;-14.17;100.00
7297;BME280;40758;54.038;11.684;2022-12-17T07:44:42;102203.09;;;-14.11;100.00
7297;BME280;40758;54.038;11.684;2022-12-17T07:47:29;102206.75;;;-14.06;100.00
7297;BME280;40758;54.038;11.684;2022-12-17T07:50:15;102207.84;;;-14.01;100.00
7297;BME280;40758;54.038;11.684;2022-12-17T07:53:03;102213.59;;;-13.86;100.00
7297;BME280;40758;54.038;11.684;2022-12-17T07:55:51;102214.00;;;-13.75;100.00
7297;BME280;40758;54.038;11.684;2022-12-17T07:58:45;102215.13;;;-13.69;100.00
7297;BME280;40758;54.038;11.684;2022-12-17T08:01:32;102215.47;;;-13.60;100.00
7297;BME280;40758;54.038;11.684;2022-12-17T08:04:20;102213.06;;;-13.55;100.00
7297;BME280;40758;54.038;11.684;2022-12-17T08:07:07;102217.72;;;-13.46;100.00
7297;BME280;40758;54.038;11.684;2022-12-17T08:09:53;102220.63;;;-13.37;100.00
7297;BME280;40758;54.038;11.684;2022-12-17T08:12:54;102215.22;;;-13.21;100.00
7297;BME280;40758;54.038;11.684;2022-12-17T08:15:52;102221.78;;;-13.05;100.00
7297;BME280;40758;54.038;11.684;2022-12-17T08:18:41;102221.94;;;-13.01;100.00
7297;BME280;40758;54.038;11.684;2022-12-17T08:21:29;102221.94;;;-13.01;100.00
7297;BME280;40758;54.038;11.684;2022-12-17T08:24:15;102220.63;;;-12.90;100.00
7297;BME280;40758;54.038;11.684;2022-12-17T08:27:05;102221.06;;;-12.78;100.00
7297;BME280;40758;54.038;11.684;2022-12-17T08:29:52;102232.59;;;-12.68;100.00
7297;BME280;40758;54.038;11.684;2022-12-17T08:32:41;102224.38;;;-12.56;100.00
7297;BME280;40758;54.038;11.684;2022-12-17T08:35:30;102227.63;;;-12.37;100.00
7297;BME280;40758;54.038;11.684;2022-12-17T08:38:18;102224.69;;;-12.22;100.00
7297;BME280;40758;54.038;11.684;2022-12-17T08:41:10;102227.00;;;-12.03;100.00
7297;BME280;40758;54.038;11.684;2022-12-17T08:43:57;102231.94;;;-11.83;100.00
7297;BME280;40758;54.038;11.684;2022-12-17T08:46:43;102231.41;;;-11.72;100.00
7297;BME280;40758;54.038;11.684;2022-12-17T08:49:29;102240.25;;;-11.65;100.00
7297;BME280;40758;54.038;11.684;2022-12-17T08:52:16;102246.69;;;-11.54;100.00
7297;BME280;40758;54.038;11.684;2022-12-17T08:55:05;102250.53;;;-11.40;100.00
7297;BME280;40758;54.038;11.684;2022-12-17T08:57:53;102248.47;;;-11.23;100.00
7297;BME280;40758;54.038;11.684;2022-12-17T09:00:40;102252.31;;;-11.09;100.00
7297;BME280;40758;54.038;11.684;2022-12-17T09:03:26;102258.88;;;-10.92;100.00
7297;BME280;40758;54.038;11.684;2022-12-17T09:06:14;102263.63;;;-10.77;100.00
7297;BME280;40758;54.038;11.684;2022-12-17T09:09:06;102257.94;;;-10.64;100.00
7297;BME280;40758;54.038;11.684;2022-12-17T09:11:53;102260.91;;;-10.49;100.00
7297;BME280;40758;54.038;11.684;2022-12-17T09:14:40;102262.19;;;-10.35;100.00
7297;BME280;40758;54.038;11.684;2022-12-17T09:17:29;102274.75;;;-10.18;100.00
7297;BME280;40758;54.038;11.684;2022-12-17T09:20:20;102267.09;;;-10.11;100.00
7297;BME280;40758;54.038;11.684;2022-12-17T09:23:07;102273.41;;;-10.01;100.00
7297;BME280;40758;54.038;11.684;2022-12-17T09:25:54;102263.13;;;-9.97;100.00
7297;BME280;40758;54.038;11.684;2022-12-17T09:28:41;102276.34;;;-9.88;100.00
7297;BME280;40758;54.038;11.684;2022-12-17T09:31:32;102275.19;;;-9.64;100.00
7297;BME280;40758;54.038;11.684;2022-12-17T09:34:19;102278.72;;;-9.23;100.00
7297;BME280;40758;54.038;11.684;2022-12-17T09:37:07;102279.44;;;-8.88;100.00
7297;BME280;40758;54.038;11.684;2022-12-17T09:39:53;102279.44;;;-8.46;100.00
7297;BME280;40758;54.038;11.684;2022-12-17T09:42:46;102279.88;;;-8.19;100.00
7297;BME280;40758;54.038;11.684;2022-12-17T09:45:49;102280.84;;;-8.14;100.00
7297;BME280;40758;54.038;11.684;2022-12-17T09:48:55;102277.34;;;-8.16;100.00
7297;BME280;40758;54.038;11.684;2022-12-17T09:51:44;102281.72;;;-8.13;100.00
7297;BME280;40758;54.038;11.684;2022-12-17T09:54:35;102290.84;;;-7.90;100.00
7297;BME280;40758;54.038;11.684;2022-12-17T09:57:32;102291.47;;;-7.51;100.00
7297;BME280;40758;54.038;11.684;2022-12-17T10:00:23;102295.50;;;-7.14;100.00
7297;BME280;40758;54.038;11.684;2022-12-17T10:03:18;102292.13;;;-7.07;100.00
7297;BME280;40758;54.038;11.684;2022-12-17T10:06:12;102292.13;;;-7.07;100.00
7297;BME280;40758;54.038;11.684;2022-12-17T10:09:13;102293.03;;;-7.02;100.00
7297;BME280;40758;54.038;11.684;2022-12-17T10:12:11;102295.63;;;-7.05;100.00
7297;BME280;40758;54.038;11.684;2022-12-17T10:15:02;102299.38;;;-6.86;100.00
7297;BME280;40758;54.038;11.684;2022-12-17T10:17:48;102297.97;;;-6.58;100.00
7297;BME280;40758;54.038;11.684;2022-12-17T10:20:46;102302.25;;;-5.77;100.00
7297;BME280;40758;54.038;11.684;2022-12-17T10:23:37;102304.44;;;-5.18;100.00
7297;BME280;40758;54.038;11.684;2022-12-17T10:26:27;102306.34;;;-4.87;100.00
7297;BME280;40758;54.038;11.684;2022-12-17T10:29:17;102307.31;;;-4.67;100.00
7297;BME280;40758;54.038;11.684;2022-12-17T10:32:21;102306.59;;;-4.19;100.00
7297;BME280;40758;54.038;11.684;2022-12-17T10:35:18;102312.78;;;-3.50;100.00
7297;BME280;40758;54.038;11.684;2022-12-17T10:38:21;102307.44;;;-2.84;100.00
7297;BME280;40758;54.038;11.684;2022-12-17T10:41:24;102313.34;;;-2.31;100.00
7297;BME280;40758;54.038;11.684;2022-12-17T10:44:22;102303.34;;;-1.77;100.00
7297;BME280;40758;54.038;11.684;2022-12-17T10:47:15;102305.09;;;-1.75;100.00
7297;BME280;40758;54.038;11.684;2022-12-17T10:50:09;102301.50;;;-1.66;100.00
7297;BME280;40758;54.038;11.684;2022-12-17T10:52:57;102312.63;;;-1.31;100.00
7297;BME280;40758;54.038;11.684;2022-12-17T10:55:53;102312.09;;;-0.79;100.00
7297;BME280;40758;54.038;11.684;2022-12-17T10:58:44;102311.78;;;-0.52;100.00
7297;BME280;40758;54.038;11.684;2022-12-17T11:01:32;102308.97;;;-0.39;100.00
7297;BME280;40758;54.038;11.684;2022-12-17T11:04:25;102307.69;;;-0.11;100.00
7297;BME280;40758;54.038;11.684;2022-12-17T11:07:20;102302.00;;;0.16;100.00
7297;BME280;40758;54.038;11.684;2022-12-17T11:10:20;102295.25;;;0.54;100.00
7297;BME280;40758;54.038;11.684;2022-12-17T11:13:24;102292.94;;;0.83;100.00
7297;BME280;40758;54.038;11.684;2022-12-17T11:16:20;102292.59;;;1.01;100.00
7297;BME280;40758;54.038;11.684;2022-12-17T11:19:27;102288.19;;;1.02;100.00
7297;BME280;40758;54.038;11.684;2022-12-17T11:22:29;102284.41;;;1.15;100.00
7297;BME280;40758;54.038;11.684;2022-12-17T11:25:39;102275.38;;;1.25;100.00
7297;BME280;40758;54.038;11.684;2022-12-17T11:28:33;102266.50;;;1.28;100.00
7297;BME280;40758;54.038;11.684;2022-12-17T11:31:46;102263.78;;;1.31;100.00
7297;BME280;40758;54.038;11.684;2022-12-17T11:34:58;102265.13;;;1.50;100.00
7297;BME280;40758;54.038;11.684;2022-12-17T11:37:57;102256.94;;;1.62;100.00
7297;BME280;40758;54.038;11.684;2022-12-17T11:40:52;102244.13;;;1.81;100.00
7297;BME280;40758;54.038;11.684;2022-12-17T11:43:50;102240.00;;;1.69;100.00
7297;BME280;40758;54.038;11.684;2022-12-17T11:46:50;102231.59;;;1.89;100.00
7297;BME280;40758;54.038;11.684;2022-12-17T11:49:54;102244.97;;;1.84;100.00
7297;BME280;40758;54.038;11.684;2022-12-17T11:52:56;102231.00;;;1.76;97.51
7297;BME280;40758;54.038;11.684;2022-12-17T11:56:02;102226.91;;;1.61;96.06
7297;BME280;40758;54.038;11.684;2022-12-17T11:58:59;102249.84;;;1.23;98.08
7297;BME280;40758;54.038;11.684;2022-12-17T12:02:04;102248.13;;;1.20;98.44
7297;BME280;40758;54.038;11.684;2022-12-17T12:05:15;102249.13;;;1.56;98.82
7297;BME280;40758;54.038;11.684;2022-12-17T12:08:22;102254.56;;;1.07;99.30
7297;BME280;40758;54.038;11.684;2022-12-17T12:11:23;102259.88;;;1.05;99.53
7297;BME280;40758;54.038;11.684;2022-12-17T12:14:30;102266.59;;;1.23;99.67
7297;BME280;40758;54.038;11.684;2022-12-17T12:17:36;102258.94;;;0.62;100.00
7297;BME280;40758;54.038;11.684;2022-12-17T12:20:58;102266.72;;;-0.39;100.00
7297;BME280;40758;54.038;11.684;2022-12-17T12:24:05;102270.66;;;-0.71;100.00
7297;BME280;40758;54.038;11.684;2022-12-17T12:27:08;102271.16;;;-1.15;100.00
7297;BME280;40758;54.038;11.684;2022-12-17T12:30:07;102290.59;;;-1.24;100.00
7297;BME280;40758;54.038;11.684;2022-12-17T12:33:06;102282.94;;;-1.49;100.00
7297;BME280;40758;54.038;11.684;2022-12-17T12:36:01;102286.75;;;-1.85;100.00
7297;BME280;40758;54.038;11.684;2022-12-17T12:38:53;102282.50;;;-2.05;100.00
7297;BME280;40758;54.038;11.684;2022-12-17T12:41:47;102288.69;;;-2.15;100.00
7297;BME280;40758;54.038;11.684;2022-12-17T12:44:50;102291.34;;;-2.21;100.00
7297;BME280;40758;54.038;11.684;2022-12-17T12:47:52;102280.84;;;-2.27;100.00
7297;BME280;40758;54.038;11.684;2022-12-17T12:50:49;102290.59;;;-2.46;100.00
7297;BME280;40758;54.038;11.684;2022-12-17T12:53:38;102280.09;;;-2.50;100.00
7297;BME280;40758;54.038;11.684;2022-12-17T12:56:31;102282.78;;;-2.56;100.00
7297;BME280;40758;54.038;11.684;2022-12-17T12:59:26;102289.78;;;-2.55;100.00
7297;BME280;40758;54.038;11.684;2022-12-17T13:02:37;102289.84;;;-2.67;100.00
7297;BME280;40758;54.038;11.684;2022-12-17T13:05:33;102288.16;;;-2.96;100.00
7297;BME280;40758;54.038;11.684;2022-12-17T13:08:34;102295.22;;;-3.13;100.00
7297;BME280;40758;54.038;11.684;2022-12-17T13:11:28;102297.88;;;-3.22;100.00
7297;BME280;40758;54.038;11.684;2022-12-17T13:14:08;102295.28;;;-3.37;100.00
7297;BME280;40758;54.038;11.684;2022-12-17T13:16:52;102296.16;;;-3.55;100.00
7297;BME280;40758;54.038;11.684;2022-12-17T13:19:38;102300.53;;;-3.74;100.00
7297;BME280;40758;54.038;11.684;2022-12-17T13:22:29;102290.91;;;-3.91;100.00
7297;BME280;40758;54.038;11.684;2022-12-17T13:25:17;102290.00;;;-3.95;100.00
7297;BME280;40758;54.038;11.684;2022-12-17T13:27:48;102300.53;;;-3.96;100.00
7297;BME280;40758;54.038;11.684;2022-12-17T13:30:44;102299.66;;;-3.97;100.00
7297;BME280;40758;54.038;11.684;2022-12-17T13:33:25;102299.63;;;-4.06;100.00
7297;BME280;40758;54.038;11.684;2022-12-17T13:36:12;102305.72;;;-4.13;100.00
7297;BME280;40758;54.038;11.684;2022-12-17T13:39:00;102309.22;;;-4.23;100.00
7297;BME280;40758;54.038;11.684;2022-12-17T13:41:33;102319.69;;;-4.29;100.00
7297;BME280;40758;54.038;11.684;2022-12-17T13:44:23;102322.28;;;-4.44;100.00
7297;BME280;40758;54.038;11.684;2022-12-17T13:46:53;102324.88;;;-4.51;100.00
7297;BME280;40758;54.038;11.684;2022-12-17T13:49:24;102321.34;;;-4.56;100.00
7297;BME280;40758;54.038;11.684;2022-12-17T13:52:02;102320.47;;;-4.56;100.00
7297;BME280;40758;54.038;11.684;2022-12-17T13:54:40;102331.81;;;-4.65;100.00
7297;BME280;40758;54.038;11.684;2022-12-17T13:57:16;102328.28;;;-4.67;100.00
7297;BME280;40758;54.038;11.684;2022-12-17T13:59:49;102337.09;;;-4.59;100.00
7297;BME280;40758;54.038;11.684;2022-12-17T14:02:26;102338.84;;;-4.58;100.00
7297;BME280;40758;54.038;11.684;2022-12-17T14:05:00;102340.53;;;-4.66;100.00
7297;BME280;40758;54.038;11.684;2022-12-17T14:07:40;102345.78;;;-4.66;100.00
7297;BME280;40758;54.038;11.684;2022-12-17T14:10:17;102339.63;;;-4.72;100.00
7297;BME280;40758;54.038;11.684;2022-12-17T14:12:47;102343.94;;;-4.85;100.00
7297;BME280;40758;54.038;11.684;2022-12-17T14:15:25;102347.41;;;-4.91;100.00
7297;BME280;40758;54.038;11.684;2022-12-17T14:17:59;102348.31;;;-4.88;100.00
7297;BME280;40758;54.038;11.684;2022-12-17T14:20:32;102349.09;;;-5.02;100.00
7297;BME280;40758;54.038;11.684;2022-12-17T14:23:04;102353.41;;;-5.13;100.00
7297;BME280;40758;54.038;11.684;2022-12-17T14:25:38;102345.50;;;-5.14;100.00
7297;BME280;40758;54.038;11.684;2022-12-17T14:28:22;102362.03;;;-5.23;100.00
7297;BME280;40758;54.038;11.684;2022-12-17T14:31:03;102354.97;;;-5.30;100.00